Time;durP1;ratioP1;P1;durP2;ratioP2;P2;SDS_P1;SDS_P2;PMS_P1;PMS_P2;Temp;Humidity;BMP_temperature;BMP_pressure;BME280_temperature;BME280_humidity;BME280_pressure;Samples;Min_cycle;Max_cycle;Signal;HPM_P1;HPM_P2
2021/05/04 00:01:58;;;;;;;3.40;2.23;;;;;;;6.71;73.72;98699.44;10455731;28;20175;-74
2021/05/04 00:07:17;;;;;;;1.20;1.10;;;;;;;6.73;72.98;98690.84;10455567;28;20685;-76
2021/05/04 00:12:36;;;;;;;3.60;3.30;;;;;;;6.67;73.78;98678.72;10456421;28;20168;-77
2021/05/04 00:17:55;;;;;;;2.60;2.40;;;;;;;6.56;74.63;98664.22;10455093;28;20172;-76
2021/05/04 00:23:14;;;;;;;3.60;3.23;;;;;;;6.43;75.54;98655.56;10456394;28;20179;-76
2021/05/04 00:28:33;;;;;;;2.33;2.17;;;;;;;6.33;74.88;98641.84;10455541;28;20234;-75
2021/05/04 00:33:53;;;;;;;3.13;2.03;;;;;;;6.31;74.67;98627.00;10454824;28;20662;-76
2021/05/04 00:39:12;;;;;;;4.33;2.63;;;;;;;6.25;74.38;98629.31;10455031;28;20187;-74
2021/05/04 00:44:32;;;;;;;3.10;2.80;;;;;;;6.28;73.67;98628.56;10454077;28;20626;-76
2021/05/04 00:49:51;;;;;;;2.37;1.77;;;;;;;6.18;73.80;98612.88;10454492;28;20207;-75
2021/05/04 00:55:11;;;;;;;2.70;2.33;;;;;;;6.23;72.94;98598.84;10455704;28;20641;-74
2021/05/04 01:00:30;;;;;;;3.60;3.00;;;;;;;6.23;73.22;98590.66;10439146;28;20230;-75
2021/05/04 01:05:49;;;;;;;3.00;1.90;;;;;;;6.43;71.74;98583.75;10455600;28;20691;-75
2021/05/04 01:11:09;;;;;;;3.33;2.07;;;;;;;6.58;70.94;98574.44;10454777;28;20573;-74
2021/05/04 01:16:28;;;;;;;3.23;1.67;;;;;;;6.66;70.53;98551.44;10453787;28;20184;-74
2021/05/04 01:21:47;;;;;;;5.23;3.43;;;;;;;6.66;70.57;98551.44;10455172;28;20266;-74
2021/05/04 01:27:06;;;;;;;3.73;3.47;;;;;;;6.57;71.48;98537.34;10458125;28;20223;-73
2021/05/04 01:32:26;;;;;;;1.83;1.73;;;;;;;6.54;71.49;98522.50;10461829;28;20171;-76
2021/05/04 01:37:46;;;;;;;4.90;2.40;;;;;;;6.45;72.59;98522.09;10461746;28;20629;-77
2021/05/04 01:43:05;;;;;;;1.90;1.70;;;;;;;6.38;73.42;98502.19;10462424;28;20546;-77
2021/05/04 01:48:24;;;;;;;2.90;2.70;;;;;;;6.34;74.18;98493.19;10460667;28;20206;-77
2021/05/04 01:53:42;;;;;;;1.43;1.33;;;;;;;6.27;74.64;98501.34;10460941;28;20269;-77
2021/05/04 01:59:02;;;;;;;4.33;2.03;;;;;;;6.34;74.80;98490.44;10460835;28;20296;-78
2021/05/04 02:04:23;;;;;;;1.33;1.23;;;;;;;6.34;75.08;98487.72;10461204;28;20179;-76
2021/05/04 02:09:42;;;;;;;1.23;1.13;;;;;;;6.43;74.54;98477.97;10461013;28;20677;-78
2021/05/04 02:15:01;;;;;;;3.67;1.37;;;;;;;6.38;75.14;98467.44;10459032;28;20175;-78
2021/05/04 02:20:20;;;;;;;1.00;0.80;;;;;;;6.36;75.68;98461.56;10461131;28;20258;-75
2021/05/04 02:25:39;;;;;;;2.80;2.57;;;;;;;6.36;75.99;98447.16;10459684;28;20215;-77
2021/05/04 02:30:58;;;;;;;3.70;2.70;;;;;;;6.29;76.43;98436.22;10457102;28;20203;-78
2021/05/04 02:36:18;;;;;;;1.63;1.53;;;;;;;6.21;76.98;98414.72;10460057;28;20183;-76
2021/05/04 02:41:36;;;;;;;2.57;2.30;;;;;;;6.21;77.47;98414.72;10459277;28;20179;-76
2021/05/04 02:46:56;;;;;;;2.30;2.10;;;;;;;6.28;76.38;98401.06;10458779;28;20227;-78
2021/05/04 02:52:15;;;;;;;2.20;2.10;;;;;;;6.44;74.55;98385.91;10459613;28;20583;-77
2021/05/04 02:57:34;;;;;;;3.27;2.87;;;;;;;6.59;74.12;98382.75;10458588;28;20203;-76
2021/05/04 03:02:53;;;;;;;1.43;1.20;;;;;;;6.68;73.38;98376.94;10458044;28;20175;-75
2021/05/04 03:08:12;;;;;;;2.13;1.53;;;;;;;6.71;73.50;98374.19;10459017;28;20674;-76
2021/05/04 03:13:33;;;;;;;3.40;2.60;;;;;;;6.73;73.17;98368.31;10457916;28;20187;-76
2021/05/04 03:18:52;;;;;;;1.53;1.43;;;;;;;6.80;73.00;98351.91;10456425;28;20195;-76
2021/05/04 03:24:11;;;;;;;1.63;1.40;;;;;;;6.84;72.83;98344.50;10458559;28;20168;-78
2021/05/04 03:29:30;;;;;;;2.50;2.30;;;;;;;6.89;72.82;98336.69;10455175;28;20219;-76
2021/05/04 03:34:49;;;;;;;2.87;2.67;;;;;;;6.94;72.77;98324.59;10458189;28;20669;-75
2021/05/04 03:40:08;;;;;;;1.53;1.43;;;;;;;6.94;72.96;98313.66;10457871;28;20206;-76
2021/05/04 03:45:28;;;;;;;2.57;1.47;;;;;;;6.99;72.95;98300.34;10456447;28;20167;-75
2021/05/04 03:50:48;;;;;;;1.80;1.70;;;;;;;6.88;74.29;98290.59;10441073;28;20202;-75
2021/05/04 03:56:07;;;;;;;3.67;1.80;;;;;;;6.84;75.04;98278.91;10457293;28;20278;-75
2021/05/04 04:01:26;;;;;;;3.40;2.13;;;;;;;6.85;75.25;98264.06;10455816;28;20180;-75
2021/05/04 04:06:45;;;;;;;1.83;1.20;;;;;;;6.92;76.15;98253.88;10455912;28;20254;-74
2021/05/04 04:12:04;;;;;;;2.30;2.00;;;;;;;6.85;76.68;98239.47;10456750;28;20194;-73
2021/05/04 04:17:23;;;;;;;2.63;2.10;;;;;;;6.89;77.03;98232.03;10455291;28;20210;-75
2021/05/04 04:22:42;;;;;;;2.07;1.33;;;;;;;7.02;76.75;98225.72;10456447;28;20258;-76
2021/05/04 04:28:01;;;;;;;10.17;1.90;;;;;;;7.08;76.82;98206.97;10455632;28;20663;-78
2021/05/04 04:33:25;;;;;;;1.87;1.77;;;;;;;7.07;77.34;98200.69;10453966;28;20175;-75
2021/05/04 04:38:44;;;;;;;5.30;2.93;;;;;;;7.23;77.13;98192.81;10455461;28;20199;-75
2021/05/04 04:44:03;;;;;;;1.60;1.50;;;;;;;7.25;76.34;98191.25;10455101;28;20175;-77
2021/05/04 04:49:23;;;;;;;2.50;2.23;;;;;;;7.35;76.33;98176.72;10455048;28;20203;-76
2021/05/04 04:54:42;;;;;;;2.10;1.97;;;;;;;7.50;75.93;98175.47;10463691;28;20670;-76
2021/05/04 05:00:00;;;;;;;1.67;1.43;;;;;;;7.62;75.95;98166.78;10455230;28;20613;-76
2021/05/04 05:05:20;;;;;;;4.13;3.00;;;;;;;7.67;76.13;98154.63;10462980;28;20185;-78
2021/05/04 05:10:39;;;;;;;2.33;1.77;;;;;;;7.91;75.36;98135.28;10463216;28;20591;-78
2021/05/04 05:15:58;;;;;;;1.47;1.30;;;;;;;8.20;73.37;98148.34;10462324;28;20176;-76
2021/05/04 05:21:17;;;;;;;2.37;1.80;;;;;;;8.55;71.86;98130.78;10462398;28;20179;-77
2021/05/04 05:26:36;;;;;;;8.00;1.53;;;;;;;8.76;70.57;98110.13;10462691;28;20227;-79
2021/05/04 05:31:54;;;;;;;1.23;1.13;;;;;;;9.24;65.78;98090.69;10460771;28;20179;-75
2021/05/04 05:37:13;;;;;;;2.30;1.70;;;;;;;9.45;65.41;98084.88;10461645;28;20187;-77
2021/05/04 05:42:32;;;;;;;2.87;2.00;;;;;;;9.64;64.21;98063.00;10461534;28;20202;-76
2021/05/04 05:47:51;;;;;;;2.57;1.07;;;;;;;9.83;63.77;98073.28;10459436;28;20228;-78
2021/05/04 05:53:10;;;;;;;3.17;2.17;;;;;;;10.07;62.29;98080.34;10462063;28;20235;-74
2021/05/04 05:58:29;;;;;;;3.13;1.37;;;;;;;10.16;61.60;98064.84;10460871;28;20203;-76
2021/05/04 06:03:48;;;;;;;2.07;1.13;;;;;;;10.33;60.78;98059.03;10460392;28;20612;-76
2021/05/04 06:09:08;;;;;;;1.80;1.70;;;;;;;10.44;60.00;98065.09;10468327;28;20219;-76
2021/05/04 06:14:27;;;;;;;1.90;1.47;;;;;;;10.68;59.00;98063.81;10474496;28;20186;-75
2021/05/04 06:19:46;;;;;;;6.10;2.17;;;;;;;10.78;58.69;98071.06;10483406;28;20535;-75
2021/05/04 06:25:05;;;;;;;1.50;1.23;;;;;;;10.97;59.14;98070.28;10477973;28;20541;-76
2021/05/04 06:30:26;;;;;;;1.53;1.43;;;;;;;11.06;58.26;98072.44;10477672;28;20234;-76
2021/05/04 06:35:48;;;;;;;1.73;1.30;;;;;;;11.29;58.11;98075.84;10478086;28;20171;-75
2021/05/04 06:41:07;;;;;;;1.20;1.10;;;;;;;11.40;57.56;98084.63;10478530;28;20179;-75
2021/05/04 06:46:29;;;;;;;1.60;1.40;;;;;;;11.56;57.30;98095.69;10474320;28;20261;-74
2021/05/04 06:51:48;;;;;;;1.50;1.37;;;;;;;11.74;55.56;98091.34;10477978;28;20190;-75
2021/05/04 06:57:06;;;;;;;1.40;1.17;;;;;;;11.94;53.39;98073.50;10478560;28;20211;-74
2021/05/04 07:02:26;;;;;;;1.60;1.27;;;;;;;12.08;52.94;98073.13;10481988;28;20551;-77
2021/05/04 07:07:46;;;;;;;6.40;2.10;;;;;;;12.25;52.54;98071.13;10500274;28;20234;-76
2021/05/04 07:13:13;;;;;;;2.23;1.10;;;;;;;12.41;52.26;98079.34;10500190;28;20179;-76
2021/05/04 07:18:34;;;;;;;0.90;0.67;;;;;;;12.43;51.67;98074.19;10498861;28;20166;-78
2021/05/04 07:23:53;;;;;;;2.17;1.30;;;;;;;12.57;50.80;98049.75;10499762;28;20167;-76
2021/05/04 07:29:12;;;;;;;3.83;1.00;;;;;;;12.52;50.33;98036.47;10498007;28;20234;-76
2021/05/04 07:34:31;;;;;;;1.00;0.67;;;;;;;12.42;49.89;98012.72;10499462;28;20174;-78
2021/05/04 07:39:50;;;;;;;1.20;1.03;;;;;;;12.47;50.94;98001.16;10499107;28;20526;-76
2021/05/04 07:45:10;;;;;;;1.13;1.03;;;;;;;12.47;50.69;97984.59;10497739;28;20186;-76
2021/05/04 07:50:29;;;;;;;2.07;1.07;;;;;;;12.48;50.71;97986.16;10497286;28;20206;-75
2021/05/04 07:55:50;;;;;;;1.07;0.87;;;;;;;12.73;50.28;97978.69;10479660;28;20191;-75
2021/05/04 08:01:09;;;;;;;1.07;0.80;;;;;;;12.91;49.71;97992.00;10497143;28;20197;-74
2021/05/04 08:06:28;;;;;;;3.57;1.47;;;;;;;13.02;48.48;97978.63;10496227;28;20178;-75
2021/05/04 08:11:47;;;;;;;1.60;1.33;;;;;;;13.08;48.50;97969.34;10497878;28;20175;-74
2021/05/04 08:17:13;;;;;;;1.30;1.13;;;;;;;13.25;48.75;97962.50;10496940;28;20167;-75
2021/05/04 08:22:32;;;;;;;3.37;1.57;;;;;;;13.31;48.04;97954.44;10497045;28;20178;-75
2021/05/04 08:27:51;;;;;;;1.67;1.07;;;;;;;13.57;48.41;97965.75;10497096;28;20680;-75
2021/05/04 08:33:11;;;;;;;1.50;1.00;;;;;;;13.87;47.62;97965.13;10495480;28;20273;-76
2021/05/04 08:38:30;;;;;;;1.80;0.80;;;;;;;13.89;46.59;97965.44;10496150;28;20182;-75
2021/05/04 08:43:49;;;;;;;3.63;1.63;;;;;;;13.98;46.10;97932.34;10497333;28;20249;-74
2021/05/04 08:49:12;;;;;;;1.83;1.53;;;;;;;14.00;44.97;97954.78;10495691;28;20292;-75
2021/05/04 08:54:31;;;;;;;1.00;0.90;;;;;;;14.29;44.46;97951.81;10496253;28;20649;-75
2021/05/04 08:59:50;;;;;;;1.00;0.90;;;;;;;14.41;43.83;97954.50;10495740;28;20206;-75
2021/05/04 09:05:17;;;;;;;1.50;1.13;;;;;;;14.46;43.86;97946.41;10496015;28;20194;-75
2021/05/04 09:10:45;;;;;;;2.20;1.27;;;;;;;14.03;43.34;97940.06;10495166;28;20580;-75
2021/05/04 09:21:40;;;;;;;4.60;0.97;;;;;;;13.90;44.70;97950.41;10496153;28;20167;-75
2021/05/04 09:27:06;;;;;;;1.40;0.90;;;;;;;13.77;45.51;97946.91;10496143;28;20222;-76
2021/05/04 09:32:28;;;;;;;1.23;1.10;;;;;;;13.74;47.67;97942.28;10494430;28;20531;-76
2021/05/04 09:37:47;;;;;;;1.30;1.13;;;;;;;13.52;52.25;97963.56;10496478;28;20637;-76
2021/05/04 09:43:12;;;;;;;1.43;1.10;;;;;;;13.32;51.80;97967.03;10495115;28;20179;-75
2021/05/04 09:48:32;;;;;;;1.07;0.73;;;;;;;13.30;52.16;97958.41;10497717;28;20285;-75
2021/05/04 09:59:13;;;;;;;1.30;1.07;;;;;;;12.94;57.65;97996.63;10544871;28;20178;-79
2021/05/04 10:04:32;;;;;;;1.63;0.80;;;;;;;12.79;56.03;97973.41;10543485;28;20586;-78
2021/05/04 10:09:52;;;;;;;1.10;0.80;;;;;;;12.78;56.14;97971.84;10543483;28;20213;-77
2021/05/04 10:15:14;;;;;;;1.00;0.80;;;;;;;12.71;60.50;97972.06;10542395;28;20173;-80
2021/05/04 10:20:33;;;;;;;2.30;1.40;;;;;;;12.61;59.28;97981.44;10536759;28;20172;-78
2021/05/04 10:25:57;;;;;;;2.30;1.37;;;;;;;12.78;61.33;97971.84;10472317;28;20215;-76
2021/05/04 10:31:17;;;;;;;1.20;0.70;;;;;;;12.75;59.62;97970.75;10458800;28;20269;-77
2021/05/04 10:36:36;;;;;;;0.90;0.70;;;;;;;12.75;60.56;97956.19;10459630;28;20175;-76
2021/05/04 10:41:58;;;;;;;1.20;0.73;;;;;;;12.79;59.26;97967.88;10459203;28;20172;-78
2021/05/04 10:47:39;;;;;;;1.50;0.73;;;;;;;12.63;61.07;97972.72;10458643;28;20575;-79
2021/05/04 10:53:00;;;;;;;0.90;0.53;;;;;;;12.55;63.06;97985.19;10458863;28;20191;-77
2021/05/04 10:58:23;;;;;;;0.90;0.50;;;;;;;12.18;65.28;97983.88;10459229;28;20163;-76
2021/05/04 11:03:54;;;;;;;0.90;0.60;;;;;;;12.17;68.38;98001.63;10457341;28;20172;-78
2021/05/04 11:09:14;;;;;;;1.10;0.90;;;;;;;12.00;70.87;98015.84;10458874;28;20208;-77
2021/05/04 11:14:37;;;;;;;3.63;1.37;;;;;;;11.99;70.66;98014.34;10457773;28;20184;-76
2021/05/04 11:19:56;;;;;;;2.87;1.13;;;;;;;12.03;72.74;98001.97;10458812;28;20180;-75
2021/05/04 11:25:39;;;;;;;0.90;0.50;;;;;;;11.99;71.15;98017.84;10456619;28;20187;-78
2021/05/04 11:30:58;;;;;;;4.07;0.87;;;;;;;12.21;69.61;98001.50;10456594;28;20661;-75
2021/05/04 11:36:40;;;;;;;1.20;0.90;;;;;;;12.32;69.96;98026.78;10456995;28;20172;-76
2021/05/04 11:42:01;;;;;;;1.07;0.80;;;;;;;11.87;72.04;98017.78;10457848;28;20204;-75
2021/05/04 11:47:22;;;;;;;2.93;0.97;;;;;;;11.91;71.56;98012.97;10456470;28;20665;-75
2021/05/04 11:52:45;;;;;;;1.63;1.53;;;;;;;11.96;71.21;98018.72;10459886;28;20795;-76
2021/05/04 11:58:18;;;;;;;1.20;0.80;;;;;;;12.12;71.82;98024.19;10483253;28;20187;-76
2021/05/04 12:03:37;;;;;;;1.90;1.50;;;;;;;12.33;69.83;98006.28;10455395;28;20180;-76
2021/05/04 12:09:11;;;;;;;1.50;0.90;;;;;;;12.25;68.39;98005.72;10486122;28;20586;-76
2021/05/04 12:14:30;;;;;;;1.50;0.80;;;;;;;12.35;67.25;97985.38;10496925;28;20182;-74
2021/05/04 12:19:49;;;;;;;1.37;1.20;;;;;;;12.26;63.98;98007.28;10459846;28;20187;-74
2021/05/04 12:25:09;;;;;;;1.00;0.90;;;;;;;12.23;64.14;98004.63;10455451;28;20537;-77
2021/05/04 12:30:28;;;;;;;1.10;0.83;;;;;;;12.44;65.25;98006.78;10454583;28;20203;-76
2021/05/04 12:36:01;;;;;;;1.33;1.10;;;;;;;12.26;66.74;97996.25;10455579;28;20290;-75
2021/05/04 12:41:22;;;;;;;1.27;1.07;;;;;;;12.12;67.23;98001.38;10456043;28;20555;-79
2021/05/04 12:46:43;;;;;;;1.00;0.60;;;;;;;12.20;67.85;98002.72;10454825;28;20175;-78
2021/05/04 12:52:21;;;;;;;1.00;0.80;;;;;;;12.39;68.58;97999.81;10455775;28;20633;-78
2021/05/04 12:57:40;;;;;;;5.40;1.13;;;;;;;12.32;65.37;97974.41;10455639;28;20168;-75
2021/05/04 13:03:17;;;;;;;0.90;0.50;;;;;;;12.52;65.26;97986.81;10454536;28;20168;-75
2021/05/04 13:08:56;;;;;;;1.00;0.80;;;;;;;12.57;66.37;97983.53;10455197;28;20615;-74
2021/05/04 13:14:42;;;;;;;1.10;0.83;;;;;;;12.45;67.44;97991.78;10460431;28;20191;-76
2021/05/04 13:20:34;;;;;;;0.90;0.53;;;;;;;12.25;66.93;97971.84;10454377;28;20179;-78
2021/05/04 13:31:42;;;;;;;0.97;0.73;;;;;;;11.93;68.88;97969.97;10461371;28;20257;-78
2021/05/04 13:37:04;;;;;;;1.07;0.80;;;;;;;11.77;71.75;97982.25;10461918;28;20569;-75
2021/05/04 13:48:25;;;;;;;1.80;1.10;;;;;;;11.31;77.97;97993.59;10461188;28;20215;-77
2021/05/04 13:53:43;;;;;;;1.83;0.97;;;;;;;11.51;77.67;97981.28;10461600;28;20223;-77
2021/05/04 13:59:02;;;;;;;2.03;0.90;;;;;;;11.68;75.29;97974.59;10462155;28;20172;-75
2021/05/04 14:26:23;;;;;;;1.60;0.90;;;;;;;12.48;69.42;97919.19;10460268;28;20220;-76
2021/05/04 14:31:44;;;;;;;0.90;0.60;;;;;;;12.69;68.67;97911.03;10457323;28;20223;-76
2021/05/04 14:37:16;;;;;;;1.80;0.93;;;;;;;12.85;67.81;97919.19;10460616;28;20172;-75
2021/05/04 14:59:47;;;;;;;0.87;0.60;;;;;;;12.65;63.85;97907.63;10456908;28;20188;-75
2021/05/04 15:05:07;;;;;;;0.90;0.60;;;;;;;12.58;64.03;97909.81;10458397;28;20211;-74
2021/05/04 15:10:27;;;;;;;1.00;0.80;;;;;;;12.63;64.73;97926.59;10457669;28;20317;-75
2021/05/04 15:26:40;;;;;;;1.00;0.77;;;;;;;12.32;65.70;97916.50;10457890;28;20223;-77
2021/05/04 15:32:01;;;;;;;1.03;0.70;;;;;;;12.17;68.22;97935.44;10457114;28;20582;-76
2021/05/04 15:37:20;;;;;;;1.10;0.70;;;;;;;11.59;72.37;97921.31;10458305;28;20179;-77
2021/05/04 15:42:39;;;;;;;0.90;0.50;;;;;;;11.47;74.63;97913.75;10456958;28;20175;-76
2021/05/04 15:48:03;;;;;;;1.87;0.90;;;;;;;11.55;73.24;97909.66;10455642;28;20203;-77
2021/05/04 16:09:57;;;;;;;0.87;0.57;;;;;;;11.82;72.07;97899.06;10456412;28;20215;-77
2021/05/04 16:15:16;;;;;;;1.20;0.70;;;;;;;11.97;71.11;97899.00;10454116;28;20201;-76
2021/05/04 16:31:38;;;;;;;0.80;0.50;;;;;;;11.52;79.12;97874.69;10454386;28;20218;-75
2021/05/04 16:36:58;;;;;;;1.30;0.60;;;;;;;11.26;83.37;97873.00;10456174;28;20167;-76
2021/05/04 16:42:16;;;;;;;1.53;0.80;;;;;;;11.17;84.63;97867.31;10455943;28;20179;-77
2021/05/04 16:47:36;;;;;;;0.87;0.50;;;;;;;11.06;85.87;97860.53;10453659;28;20199;-77
2021/05/04 16:52:55;;;;;;;1.00;0.83;;;;;;;11.03;86.99;97851.19;10455583;28;20661;-78
2021/05/04 16:58:16;;;;;;;7.60;0.70;;;;;;;10.93;88.56;97845.94;10461467;28;20187;-79
2021/05/04 17:03:35;;;;;;;0.93;0.67;;;;;;;10.97;86.85;97839.16;10462909;28;20179;-77
2021/05/04 17:14:32;;;;;;;0.90;0.60;;;;;;;10.93;86.00;97841.22;10462457;28;20172;-76
2021/05/04 17:19:51;;;;;;;1.60;1.50;;;;;;;10.92;88.29;97825.13;10462509;28;20176;-74
2021/05/04 17:25:10;;;;;;;0.90;0.53;;;;;;;10.85;89.29;97828.81;10461706;28;20175;-75
2021/05/04 17:30:29;;;;;;;0.90;0.57;;;;;;;10.88;88.24;97827.97;10460400;28;20203;-75
2021/05/04 17:35:51;;;;;;;3.53;1.00;;;;;;;10.67;89.75;97833.22;10462103;28;20187;-75
2021/05/04 17:41:11;;;;;;;0.90;0.60;;;;;;;10.63;90.55;97841.56;10462818;28;20220;-75
2021/05/04 17:46:34;;;;;;;1.60;0.93;;;;;;;10.52;90.36;97834.78;10459687;28;20175;-75
2021/05/04 17:51:54;;;;;;;1.20;0.80;;;;;;;10.45;91.94;97846.69;10460652;28;20582;-75
2021/05/04 17:57:12;;;;;;;1.63;0.60;;;;;;;10.21;100.00;97852.75;10461161;28;20180;-74
2021/05/04 18:02:31;;;;;;;1.00;0.70;;;;;;;9.84;100.00;97849.63;10459706;28;20232;-75
2021/05/04 18:07:51;;;;;;;1.00;0.60;;;;;;;9.44;100.00;97852.75;10459429;28;20579;-76
2021/05/04 18:24:07;;;;;;;1.20;0.60;;;;;;;8.69;100.00;97881.88;10460641;28;20172;-75
2021/05/04 18:29:32;;;;;;;0.80;0.40;;;;;;;8.64;100.00;97882.38;10459586;28;20626;-77
2021/05/04 18:40:27;;;;;;;0.80;0.40;;;;;;;8.48;100.00;97852.06;10459843;28;20203;-76
2021/05/04 18:46:29;;;;;;;1.63;1.20;;;;;;;8.51;100.00;97821.13;10459031;28;20176;-77
2021/05/04 19:31:17;;;;;;;1.77;0.73;;;;;;;8.83;100.00;97830.34;10456577;28;20235;-78
2021/05/04 20:10:23;;;;;;;1.37;0.70;;;;;;;8.70;100.00;97879.94;10456447;28;20207;-77
2021/05/04 20:15:45;;;;;;;1.70;0.70;;;;;;;8.62;100.00;97875.75;10455597;28;20208;-77
2021/05/04 20:21:04;;;;;;;1.90;1.47;;;;;;;8.61;100.00;97876.94;10456821;28;20179;-77
2021/05/04 20:26:23;;;;;;;3.07;0.53;;;;;;;8.56;100.00;97864.47;10456307;28;20231;-76
2021/05/04 20:31:42;;;;;;;15.40;1.03;;;;;;;8.48;100.00;97873.25;10453951;28;20202;-77
2021/05/04 20:37:01;;;;;;;0.80;0.50;;;;;;;8.43;100.00;97866.25;10455264;28;20175;-77
2021/05/04 20:42:20;;;;;;;1.10;0.60;;;;;;;8.45;100.00;97863.09;10455960;28;20542;-79
2021/05/04 20:47:40;;;;;;;1.23;1.10;;;;;;;8.39;100.00;97864.75;10454567;28;20685;-77
2021/05/04 20:52:59;;;;;;;2.57;1.23;;;;;;;8.36;100.00;97869.06;10455798;28;20191;-77
2021/05/04 20:58:19;;;;;;;0.90;0.57;;;;;;;8.26;100.00;97867.28;10455821;28;20171;-77
2021/05/04 21:03:38;;;;;;;0.80;0.50;;;;;;;8.26;100.00;97871.97;10454273;28;20174;-78
2021/05/04 21:09:04;;;;;;;2.07;0.70;;;;;;;8.18;100.00;97865.03;10454493;28;20203;-78
2021/05/04 21:14:23;;;;;;;0.80;0.50;;;;;;;8.08;100.00;97876.88;10454595;28;20180;-79
2021/05/04 21:30:35;;;;;;;0.87;0.50;;;;;;;7.98;100.00;97870.38;10453232;28;20669;-78
2021/05/04 21:35:54;;;;;;;2.40;0.87;;;;;;;8.02;100.00;97862.09;10454104;28;20251;-78
2021/05/04 21:41:13;;;;;;;0.80;0.47;;;;;;;8.05;100.00;97873.00;10455675;28;20600;-79
2021/05/04 21:46:33;;;;;;;0.80;0.50;;;;;;;8.05;100.00;97867.53;10461388;28;20184;-78
2021/05/04 21:51:52;;;;;;;0.80;0.50;;;;;;;8.11;100.00;97854.16;10461863;28;20579;-79
2021/05/04 21:57:11;;;;;;;0.90;0.70;;;;;;;8.11;100.00;97868.66;10462296;28;20175;-78
2021/05/04 22:02:31;;;;;;;0.80;0.50;;;;;;;8.16;100.00;97870.16;10460819;28;20278;-78
2021/05/04 22:07:51;;;;;;;0.83;0.50;;;;;;;8.17;100.00;97860.75;10461762;28;20215;-78
2021/05/04 22:35:10;;;;;;;1.67;1.10;;;;;;;8.24;100.00;97841.47;10460095;28;20184;-79
2021/05/04 22:40:40;;;;;;;0.80;0.50;;;;;;;8.19;100.00;97840.00;10460620;28;20179;-78
2021/05/04 22:46:26;;;;;;;0.90;0.80;;;;;;;8.17;100.00;97849.78;10458011;28;20258;-79
2021/05/04 23:19:46;;;;;;;0.90;0.60;;;;;;;8.15;100.00;97830.28;10458534;28;20567;-77
2021/05/04 23:25:06;;;;;;;1.00;0.90;;;;;;;8.10;100.00;97825.22;10458616;28;20377;-77
2021/05/04 23:30:25;;;;;;;0.80;0.50;;;;;;;8.07;100.00;97835.03;10456954;28;20647;-77
2021/05/04 23:35:44;;;;;;;1.30;0.70;;;;;;;8.09;100.00;97816.25;10457306;28;20168;-77
2021/05/04 23:41:03;;;;;;;1.43;1.33;;;;;;;8.08;100.00;97824.84;10458265;28;20167;-77
2021/05/04 23:46:22;;;;;;;1.40;1.00;;;;;;;8.08;100.00;97816.63;10455623;28;20175;-78
2021/05/04 23:51:41;;;;;;;3.83;2.10;;;;;;;8.07;100.00;97820.59;10457186;28;20207;-78
2021/05/04 23:57:00;;;;;;;2.40;1.73;;;;;;;8.05;100.00;97810.03;10457713;28;20171;-77
